createdAt,value
2018-04-26T00:00:51.487Z,97399.62
2018-04-26T00:03:22.515Z,97398.29
2018-04-26T00:05:53.508Z,97399.81
2018-04-26T00:08:24.483Z,97395.88
2018-04-26T00:10:55.512Z,97401.43
2018-04-26T00:13:26.580Z,97398.45
2018-04-26T00:15:57.572Z,97399.78
2018-04-26T00:18:28.561Z,97395.66
2018-04-26T00:20:59.562Z,97406.57
2018-04-26T00:23:30.574Z,97404.47
2018-04-26T00:26:01.553Z,97406.08
2018-04-26T00:28:32.598Z,97404.43
2018-04-26T00:31:03.592Z,97403.41
2018-04-26T00:33:34.600Z,97409.91
2018-04-26T00:36:05.583Z,97403.48
2018-04-26T00:38:36.626Z,97402.61
2018-04-26T00:41:07.587Z,97413.42
2018-04-26T00:43:38.658Z,97416.87
2018-04-26T00:46:09.644Z,97415.82
2018-04-26T00:48:40.630Z,97408.86
2018-04-26T00:51:11.623Z,97403.69
2018-04-26T00:53:42.627Z,97411.77
2018-04-26T00:56:13.663Z,97412.75
2018-04-26T00:58:44.672Z,97411.19
2018-04-26T01:01:15.671Z,97411.51
2018-04-26T01:03:46.686Z,97406.73
2018-04-26T01:06:17.703Z,97413.81
2018-04-26T01:08:48.738Z,97415.55
2018-04-26T01:11:19.726Z,97422.72
2018-04-26T01:13:50.946Z,97414.22
2018-04-26T01:16:21.944Z,97423.69
2018-04-26T01:18:52.910Z,97424.83
2018-04-26T01:21:23.893Z,97418.92
2018-04-26T01:23:54.951Z,97414.17
2018-04-26T01:26:25.913Z,97404.07
2018-04-26T01:28:56.928Z,97419.39
2018-04-26T01:31:27.935Z,97421.50
2018-04-26T01:33:58.919Z,97414.19
2018-04-26T01:36:42.091Z,97416.95
2018-04-26T01:39:13.092Z,97419.70
2018-04-26T01:41:44.138Z,97412.53
2018-04-26T01:44:15.161Z,97419.92
2018-04-26T01:46:46.191Z,97415.27
2018-04-26T01:49:17.234Z,97417.21
2018-04-26T01:51:48.263Z,97421.61
2018-04-26T01:54:19.277Z,97421.05
2018-04-26T01:56:50.357Z,97419.11
2018-04-26T01:59:21.362Z,97430.14
2018-04-26T02:01:52.366Z,97429.66
2018-04-26T02:04:23.330Z,97427.23
2018-04-26T02:06:54.319Z,97427.86
2018-04-26T02:09:25.286Z,97429.20
2018-04-26T02:11:56.262Z,97433.04
2018-04-26T02:14:27.249Z,97432.61
2018-04-26T02:16:58.258Z,97444.59
2018-04-26T02:19:29.302Z,97430.89
2018-04-26T02:22:07.376Z,97441.73
2018-04-26T02:24:38.355Z,97436.39
2018-04-26T02:27:09.334Z,97440.36
2018-04-26T02:29:40.327Z,97433.19
2018-04-26T02:32:11.298Z,97431.14
2018-04-26T02:34:42.274Z,97436.73
2018-04-26T02:37:13.254Z,97438.95
2018-04-26T02:39:44.290Z,97436.11
2018-04-26T02:42:15.289Z,97436.97
2018-04-26T02:44:46.270Z,97447.47
2018-04-26T02:47:17.273Z,97444.41
2018-04-26T02:49:48.253Z,97447.51
2018-04-26T02:52:19.250Z,97443.88
2018-04-26T02:54:50.235Z,97437.31
2018-04-26T02:57:21.230Z,97433.27
2018-04-26T02:59:52.217Z,97442.50
2018-04-26T03:02:23.229Z,97441.16
2018-04-26T03:04:54.210Z,97442.63
2018-04-26T03:07:25.193Z,97452.19
2018-04-26T03:09:56.172Z,97459.12
2018-04-26T03:12:27.139Z,97466.92
2018-04-26T03:14:58.160Z,97463.50
2018-04-26T03:17:29.129Z,97467.11
2018-04-26T03:20:00.169Z,97468.48
2018-04-26T03:22:31.162Z,97463.98
2018-04-26T03:25:02.297Z,97461.10
2018-04-26T03:27:33.312Z,97447.58
2018-04-26T03:30:04.352Z,97449.50
2018-04-26T03:32:35.355Z,97455.78
2018-04-26T03:35:06.364Z,97453.86
2018-04-26T03:37:37.352Z,97459.72
2018-04-26T03:40:08.376Z,97458.35
2018-04-26T03:42:39.351Z,97466.72
2018-04-26T03:45:10.367Z,97467.64
2018-04-26T03:47:41.344Z,97472.06
2018-04-26T03:50:12.310Z,97470.56
2018-04-26T03:52:43.290Z,97468.04
2018-04-26T03:55:14.299Z,97475.46
2018-04-26T03:57:45.337Z,97476.48
2018-04-26T04:00:28.550Z,97474.80
2018-04-26T04:03:11.818Z,97476.66
2018-04-26T04:08:51.040Z,97486.61
2018-04-26T04:11:22.035Z,97497.48
2018-04-26T04:13:53.123Z,97502.66
2018-04-26T04:16:24.098Z,97508.48
2018-04-26T04:18:55.092Z,97516.45
2018-04-26T04:21:26.126Z,97518.38
2018-04-26T04:23:57.113Z,97528.31
2018-04-26T04:26:28.132Z,97522.39
2018-04-26T04:28:59.198Z,97523.59
2018-04-26T04:31:30.209Z,97526.80
2018-04-26T04:34:01.208Z,97520.41
2018-04-26T04:36:32.191Z,97521.03
2018-04-26T04:39:03.251Z,97531.37
2018-04-26T04:41:34.255Z,97538.16
2018-04-26T04:44:05.222Z,97526.93
2018-04-26T04:46:36.225Z,97524.31
2018-04-26T04:49:07.201Z,97528.25
2018-04-26T04:51:38.190Z,97524.74
2018-04-26T04:54:09.199Z,97536.97
2018-04-26T04:56:40.222Z,97572.13
2018-04-26T04:59:11.252Z,97578.48
2018-04-26T05:01:42.308Z,97579.58
2018-04-26T05:04:13.330Z,97582.22
2018-04-26T05:06:44.322Z,97592.42
2018-04-26T05:09:15.313Z,97598.41
2018-04-26T05:11:46.332Z,97596.02
2018-04-26T05:14:17.331Z,97594.55
2018-04-26T05:16:48.318Z,97594.42
2018-04-26T05:19:19.282Z,97596.17
2018-04-26T05:21:50.303Z,97610.80
2018-04-26T05:24:21.302Z,97614.38
2018-04-26T05:26:52.343Z,97619.91
2018-04-26T05:29:23.365Z,97616.17
2018-04-26T05:31:54.354Z,97602.89
2018-04-26T05:34:25.350Z,97610.30
2018-04-26T05:36:56.342Z,97622.35
2018-04-26T05:39:27.319Z,97613.98
2018-04-26T05:41:58.345Z,97617.62
2018-04-26T05:44:29.362Z,97620.70
2018-04-26T05:47:00.391Z,97616.83
2018-04-26T05:49:31.404Z,97611.59
2018-04-26T05:52:02.395Z,97623.98
2018-04-26T05:54:33.357Z,97620.61
2018-04-26T05:57:04.350Z,97608.23
2018-04-26T05:59:35.358Z,97617.41
2018-04-26T06:02:06.358Z,97606.84
2018-04-26T06:04:37.379Z,97609.09
2018-04-26T06:07:08.367Z,97606.70
2018-04-26T06:09:39.377Z,97614.77
2018-04-26T06:12:10.356Z,97609.95
2018-04-26T06:14:41.333Z,97615.56
2018-04-26T06:17:12.316Z,97617.23
2018-04-26T06:19:43.296Z,97636.91
2018-04-26T06:22:14.336Z,97641.24
2018-04-26T06:24:45.320Z,97639.14
2018-04-26T06:27:16.333Z,97641.89
2018-04-26T06:29:47.291Z,97645.36
2018-04-26T06:32:18.307Z,97642.00
2018-04-26T06:34:49.280Z,97651.30
2018-04-26T06:37:20.262Z,97663.97
2018-04-26T06:39:51.258Z,97658.33
2018-04-26T06:42:22.278Z,97658.14
2018-04-26T06:44:53.242Z,97652.05
2018-04-26T06:47:24.210Z,97649.86
2018-04-26T06:50:02.492Z,97651.58
2018-04-26T06:52:33.522Z,97661.94
2018-04-26T06:55:04.568Z,97658.62
2018-04-26T06:57:35.554Z,97666.68
2018-04-26T07:00:06.592Z,97658.37
2018-04-26T07:02:37.606Z,97653.60
2018-04-26T07:05:08.598Z,97659.08
2018-04-26T07:07:39.588Z,97656.55
2018-04-26T07:10:10.606Z,97660.01
2018-04-26T07:12:41.623Z,97661.92
2018-04-26T07:15:12.591Z,97664.66
2018-04-26T07:17:43.630Z,97662.84
2018-04-26T07:20:14.602Z,97657.70
2018-04-26T07:22:45.620Z,97663.20
2018-04-26T07:25:16.610Z,97642.07
2018-04-26T07:27:47.659Z,97624.64
2018-04-26T07:30:18.635Z,97628.64
2018-04-26T07:32:49.684Z,97631.97
2018-04-26T07:35:20.726Z,97633.45
2018-04-26T07:37:51.723Z,97635.86
2018-04-26T07:40:22.768Z,97629.44
2018-04-26T07:42:53.768Z,97625.75
2018-04-26T07:45:24.773Z,97616.93
2018-04-26T07:47:55.819Z,97620.88
2018-04-26T07:50:26.856Z,97630.86
2018-04-26T07:52:57.896Z,97634.47
2018-04-26T07:55:28.914Z,97645.53
2018-04-26T07:57:59.947Z,97647.61
2018-04-26T08:00:30.983Z,97643.20
2018-04-26T08:03:02.031Z,97650.12
2018-04-26T08:05:32.983Z,97655.22
2018-04-26T08:08:03.962Z,97656.54
2018-04-26T08:10:35.010Z,97650.30
2018-04-26T08:13:06.038Z,97658.69
2018-04-26T08:15:37.022Z,97655.50
2018-04-26T08:18:08.032Z,97651.81
2018-04-26T08:20:39.003Z,97654.35
2018-04-26T08:23:09.995Z,97657.60
2018-04-26T08:25:40.946Z,97660.42
2018-04-26T08:28:11.946Z,97661.78
2018-04-26T08:30:42.927Z,97658.70
2018-04-26T08:33:13.930Z,97670.17
2018-04-26T08:35:44.939Z,97672.31
2018-04-26T08:38:15.983Z,97673.98
2018-04-26T08:40:47.025Z,97679.94
2018-04-26T08:43:17.995Z,97690.91
2018-04-26T08:45:49.029Z,97688.95
2018-04-26T08:48:19.983Z,97677.45
2018-04-26T08:50:51.051Z,97678.81
2018-04-26T08:53:22.118Z,97680.55
2018-04-26T08:55:53.179Z,97677.22
2018-04-26T08:58:24.142Z,97671.86
2018-04-26T09:00:55.151Z,97667.33
2018-04-26T09:03:26.094Z,97668.17
2018-04-26T09:05:57.097Z,97661.54
2018-04-26T09:08:28.059Z,97669.03
2018-04-26T09:10:59.105Z,97674.48
2018-04-26T09:13:30.103Z,97687.06
2018-04-26T09:16:01.151Z,97680.62
2018-04-26T09:18:32.117Z,97677.06
2018-04-26T09:21:03.168Z,97668.39
2018-04-26T09:23:34.233Z,97672.61
2018-04-26T09:26:05.275Z,97683.39
2018-04-26T09:28:36.286Z,97684.17
2018-04-26T09:31:07.331Z,97687.88
2018-04-26T09:33:38.372Z,97682.44
2018-04-26T09:36:09.383Z,97681.69
2018-04-26T09:38:40.411Z,97689.66
2018-04-26T09:41:11.432Z,97685.77
2018-04-26T09:43:42.491Z,97688.12
2018-04-26T09:46:13.468Z,97676.40
2018-04-26T09:48:44.571Z,97676.52
2018-04-26T09:51:15.558Z,97682.52
2018-04-26T09:53:46.523Z,97678.02
2018-04-26T09:56:17.592Z,97677.79
2018-04-26T09:58:48.608Z,97676.67
2018-04-26T10:01:19.726Z,97685.41
2018-04-26T10:03:53.774Z,97684.47
2018-04-26T10:06:31.696Z,97663.67
2018-04-26T10:09:02.800Z,97658.17
2018-04-26T10:11:33.861Z,97666.13
2018-04-26T10:14:04.849Z,97666.41
2018-04-26T10:16:35.884Z,97671.86
2018-04-26T10:19:06.857Z,97667.88
2018-04-26T10:21:37.850Z,97678.94
2018-04-26T10:24:08.918Z,97679.59
2018-04-26T10:26:39.937Z,97683.37
2018-04-26T10:29:10.998Z,97681.81
2018-04-26T10:31:41.963Z,97686.78
2018-04-26T10:34:13.003Z,97680.81
2018-04-26T10:36:43.983Z,97684.95
2018-04-26T10:39:14.985Z,97678.89
2018-04-26T10:41:46.040Z,97686.16
2018-04-26T10:44:17.057Z,97690.05
2018-04-26T10:46:48.049Z,97687.88
2018-04-26T10:49:19.017Z,97696.53
2018-04-26T10:51:49.992Z,97698.53
2018-04-26T10:54:21.047Z,97699.16
2018-04-26T10:56:52.105Z,97674.86
2018-04-26T10:59:23.067Z,97681.59
2018-04-26T11:01:54.082Z,97685.61
2018-04-26T11:04:25.133Z,97677.65
2018-04-26T11:06:56.137Z,97672.02
2018-04-26T11:09:27.137Z,97666.79
2018-04-26T11:11:58.154Z,97674.84
2018-04-26T11:14:29.190Z,97678.75
2018-04-26T11:17:00.165Z,97675.33
2018-04-26T11:19:31.154Z,97685.77
2018-04-26T11:22:02.306Z,97691.02
2018-04-26T11:24:33.292Z,97690.78
2018-04-26T11:27:04.348Z,97693.77
2018-04-26T11:29:35.365Z,97692.17
2018-04-26T11:32:06.376Z,97690.81
2018-04-26T11:34:37.388Z,97694.25
2018-04-26T11:37:08.357Z,97690.77
2018-04-26T11:39:39.330Z,97688.25
2018-04-26T11:42:10.336Z,97679.61
2018-04-26T11:44:41.298Z,97688.95
2018-04-26T11:47:12.337Z,97689.53
2018-04-26T11:49:43.349Z,97691.80
2018-04-26T11:52:14.323Z,97687.36
2018-04-26T11:54:45.305Z,97697.35
2018-04-26T11:57:16.362Z,97702.90
2018-04-26T11:59:47.382Z,97694.17
2018-04-26T12:02:18.465Z,97687.70
2018-04-26T12:04:49.427Z,97688.05
2018-04-26T12:07:20.423Z,97683.18
2018-04-26T12:09:51.434Z,97684.54
2018-04-26T12:12:22.475Z,97686.45
2018-04-26T12:14:53.447Z,97681.92
2018-04-26T12:17:24.457Z,97675.20
2018-04-26T12:19:55.430Z,97672.67
2018-04-26T12:22:26.402Z,97672.49
2018-04-26T12:25:04.378Z,97668.81
2018-04-26T12:27:35.448Z,97682.22
2018-04-26T12:30:06.490Z,97678.14
2018-04-26T12:32:37.468Z,97673.23
2018-04-26T12:35:08.494Z,97667.08
2018-04-26T12:37:39.512Z,97664.19
2018-04-26T12:40:10.539Z,97662.53
2018-04-26T12:42:41.553Z,97657.38
2018-04-26T12:45:12.555Z,97652.47
2018-04-26T12:47:43.568Z,97658.79
2018-04-26T12:50:14.610Z,97655.27
2018-04-26T12:52:45.575Z,97648.69
2018-04-26T12:55:16.592Z,97649.95
2018-04-26T12:57:47.550Z,97653.08
2018-04-26T13:00:18.535Z,97655.31
2018-04-26T13:02:49.605Z,97656.36
2018-04-26T13:05:20.640Z,97649.20
2018-04-26T13:07:51.749Z,97640.55
2018-04-26T13:10:22.686Z,97636.38
2018-04-26T13:12:53.716Z,97643.15
2018-04-26T13:15:24.707Z,97644.36
2018-04-26T13:17:55.682Z,97630.73
2018-04-26T13:20:26.784Z,97638.28
2018-04-26T13:22:57.795Z,97632.02
2018-04-26T13:25:28.804Z,97625.55
2018-04-26T13:27:59.811Z,97623.53
2018-04-26T13:30:30.850Z,97613.34
2018-04-26T13:33:01.892Z,97630.18
2018-04-26T13:35:32.877Z,97624.55
2018-04-26T13:38:03.881Z,97622.39
2018-04-26T13:40:34.868Z,97612.73
2018-04-26T13:43:05.899Z,97622.95
2018-04-26T13:45:36.892Z,97621.53
2018-04-26T13:48:07.927Z,97619.61
2018-04-26T13:50:39.015Z,97619.95
2018-04-26T13:53:10.042Z,97620.37
2018-04-26T13:55:41.056Z,97622.52
2018-04-26T13:58:12.074Z,97626.73
2018-04-26T14:00:43.092Z,97624.99
2018-04-26T14:03:14.075Z,97622.11
2018-04-26T14:05:45.056Z,97619.91
2018-04-26T14:08:16.085Z,97624.02
2018-04-26T14:10:47.062Z,97626.02
2018-04-26T14:13:18.054Z,97627.30
2018-04-26T14:15:49.091Z,97619.80
2018-04-26T14:18:20.121Z,97612.52
2018-04-26T14:20:51.074Z,97620.42
2018-04-26T14:23:22.151Z,97614.66
2018-04-26T14:25:53.105Z,97619.20
2018-04-26T14:28:24.121Z,97604.77
2018-04-26T14:30:55.077Z,97614.22
2018-04-26T14:33:26.087Z,97604.93
2018-04-26T14:35:57.091Z,97601.63
2018-04-26T14:38:28.054Z,97604.62
2018-04-26T14:40:59.085Z,97606.36
2018-04-26T14:43:30.200Z,97601.66
2018-04-26T14:46:01.200Z,97599.86
2018-04-26T14:48:32.153Z,97606.06
2018-04-26T14:51:03.171Z,97598.94
2018-04-26T14:53:34.174Z,97598.62
2018-04-26T14:56:05.188Z,97598.39
2018-04-26T14:58:36.151Z,97593.83
2018-04-26T15:01:07.192Z,97598.80
2018-04-26T15:03:38.192Z,97591.14
2018-04-26T15:06:09.205Z,97595.03
2018-04-26T15:08:40.214Z,97596.69
2018-04-26T15:11:11.259Z,97594.11
2018-04-26T15:13:42.264Z,97595.05
2018-04-26T15:16:13.284Z,97599.84
2018-04-26T15:18:44.390Z,97594.61
2018-04-26T15:21:15.415Z,97601.97
2018-04-26T15:23:46.458Z,97602.08
2018-04-26T15:26:17.466Z,97598.16
2018-04-26T15:28:48.459Z,97597.36
2018-04-26T15:31:19.441Z,97599.30
2018-04-26T15:33:50.391Z,97595.31
2018-04-26T15:36:21.352Z,97606.27
2018-04-26T15:38:52.372Z,97600.03
2018-04-26T15:41:23.416Z,97608.76
2018-04-26T15:43:54.420Z,97600.13
2018-04-26T15:46:25.456Z,97601.15
2018-04-26T15:48:56.461Z,97593.33
2018-04-26T15:51:27.492Z,97597.74
2018-04-26T15:54:10.791Z,97593.77
2018-04-26T15:56:54.063Z,97594.81
2018-04-26T15:59:37.250Z,97603.19
2018-04-26T16:02:36.374Z,97592.02
2018-04-26T16:05:25.894Z,97601.05
2018-04-26T16:08:15.471Z,97605.34
2018-04-26T16:11:04.790Z,97600.81
2018-04-26T16:13:54.279Z,97596.41
2018-04-26T16:16:43.875Z,97601.62
2018-04-26T16:19:34.170Z,97592.91
2018-04-26T16:22:23.458Z,97594.60
2018-04-26T16:25:06.864Z,97598.14
2018-04-26T16:27:50.100Z,97600.92
2018-04-26T16:30:33.489Z,97601.44
2018-04-26T16:33:16.812Z,97603.88
2018-04-26T16:36:00.007Z,97608.17
2018-04-26T16:38:43.417Z,97610.53
2018-04-26T16:41:14.432Z,97605.20
2018-04-26T16:43:45.420Z,97599.50
2018-04-26T16:46:16.429Z,97604.98
2018-04-26T16:48:47.410Z,97600.96
2018-04-26T16:51:18.446Z,97602.84
2018-04-26T16:53:49.423Z,97602.48
2018-04-26T16:56:20.434Z,97604.98
2018-04-26T16:58:51.441Z,97607.94
2018-04-26T17:01:22.515Z,97610.24
2018-04-26T17:03:53.529Z,97606.59
2018-04-26T17:06:24.518Z,97601.53
2018-04-26T17:08:55.525Z,97605.55
2018-04-26T17:11:26.656Z,97608.47
2018-04-26T17:13:57.593Z,97614.57
2018-04-26T17:16:28.621Z,97618.78
2018-04-26T17:18:59.652Z,97621.22
2018-04-26T17:21:30.687Z,97622.91
2018-04-26T17:24:01.726Z,97626.62
2018-04-26T17:26:32.716Z,97625.77
2018-04-26T17:29:03.795Z,97632.91
2018-04-26T17:31:34.772Z,97625.58
2018-04-26T17:34:05.855Z,97622.28
2018-04-26T17:36:36.947Z,97632.20
2018-04-26T17:39:07.924Z,97628.48
2018-04-26T17:41:39.060Z,97624.14
2018-04-26T17:44:10.058Z,97635.39
2018-04-26T17:46:41.094Z,97629.61
2018-04-26T17:49:12.120Z,97636.53
2018-04-26T17:51:43.098Z,97631.86
2018-04-26T17:54:14.123Z,97634.05
2018-04-26T17:56:45.153Z,97641.16
2018-04-26T17:59:16.150Z,97647.77
2018-04-26T18:01:47.141Z,97652.34
2018-04-26T18:04:18.856Z,97651.73
2018-04-26T18:06:49.897Z,97657.48
2018-04-26T18:09:20.890Z,97664.97
2018-04-26T18:11:51.899Z,97671.34
2018-04-26T18:14:22.950Z,97673.74
2018-04-26T18:16:53.972Z,97672.81
2018-04-26T18:19:25.029Z,97685.06
2018-04-26T18:21:56.071Z,97676.47
2018-04-26T18:24:27.057Z,97686.00
2018-04-26T18:26:58.077Z,97696.35
2018-04-26T18:29:29.134Z,97707.20
2018-04-26T18:32:00.177Z,97701.75
2018-04-26T18:34:31.179Z,97700.42
2018-04-26T18:37:02.211Z,97707.33
2018-04-26T18:39:33.260Z,97708.83
2018-04-26T18:42:04.278Z,97711.62
2018-04-26T18:44:35.278Z,97714.41
2018-04-26T18:47:06.283Z,97712.21
2018-04-26T18:49:37.288Z,97722.47
2018-04-26T18:52:08.289Z,97722.80
2018-04-26T18:54:39.287Z,97729.95
2018-04-26T18:57:10.304Z,97736.87
2018-04-26T18:59:41.325Z,97736.10
2018-04-26T19:02:12.356Z,97733.07
2018-04-26T19:04:43.322Z,97742.39
2018-04-26T19:07:14.355Z,97740.96
2018-04-26T19:09:45.352Z,97746.97
2018-04-26T19:12:16.314Z,97749.98
2018-04-26T19:14:47.308Z,97748.80
2018-04-26T19:17:18.301Z,97755.42
2018-04-26T19:19:49.294Z,97755.69
2018-04-26T19:22:20.383Z,97752.65
2018-04-26T19:24:51.428Z,97760.56
2018-04-26T19:27:22.409Z,97764.69
2018-04-26T19:29:53.444Z,97764.41
2018-04-26T19:32:24.476Z,97767.06
2018-04-26T19:34:55.499Z,97768.35
2018-04-26T19:37:26.538Z,97772.73
2018-04-26T19:39:57.566Z,97764.65
2018-04-26T19:42:28.557Z,97773.52
2018-04-26T19:44:59.603Z,97770.86
2018-04-26T19:47:30.595Z,97774.55
2018-04-26T19:50:01.670Z,97772.39
2018-04-26T19:52:33.893Z,97771.47
2018-04-26T19:55:04.893Z,97767.50
2018-04-26T19:57:35.997Z,97771.09
2018-04-26T20:00:06.991Z,97768.31
2018-04-26T20:02:37.964Z,97775.48
2018-04-26T20:05:08.973Z,97778.23
2018-04-26T20:07:39.984Z,97786.18
2018-04-26T20:10:10.981Z,97783.53
2018-04-26T20:12:41.934Z,97783.41
2018-04-26T20:15:12.920Z,97788.47
2018-04-26T20:17:43.899Z,97789.14
2018-04-26T20:20:14.914Z,97786.48
2018-04-26T20:22:45.914Z,97787.81
2018-04-26T20:25:16.932Z,97789.57
2018-04-26T20:27:47.937Z,97791.56
2018-04-26T20:30:18.983Z,97801.11
2018-04-26T20:32:49.957Z,97796.09
2018-04-26T20:35:21.016Z,97796.63
2018-04-26T20:37:52.087Z,97797.67
2018-04-26T20:40:23.119Z,97796.48
2018-04-26T20:42:54.103Z,97797.43
2018-04-26T20:45:25.084Z,97797.81
2018-04-26T20:47:56.091Z,97786.16
2018-04-26T20:50:27.134Z,97785.11
2018-04-26T20:52:58.297Z,97785.78
2018-04-26T20:55:29.273Z,97784.45
2018-04-26T20:58:00.301Z,97793.59
2018-04-26T21:00:31.348Z,97793.70
2018-04-26T21:03:02.429Z,97795.95
2018-04-26T21:05:33.473Z,97785.09
2018-04-26T21:08:04.546Z,97778.73
2018-04-26T21:10:35.601Z,97786.25
2018-04-26T21:13:06.630Z,97794.85
2018-04-26T21:15:37.696Z,97797.22
2018-04-26T21:18:08.782Z,97795.50
2018-04-26T21:20:39.794Z,97792.44
2018-04-26T21:23:10.852Z,97788.06
2018-04-26T21:25:41.899Z,97794.29
2018-04-26T21:28:12.949Z,97794.81
2018-04-26T21:30:43.944Z,97796.11
2018-04-26T21:33:14.983Z,97793.33
2018-04-26T21:35:46.074Z,97796.23
2018-04-26T21:38:17.078Z,97802.03
2018-04-26T21:40:48.152Z,97798.34
2018-04-26T21:43:19.220Z,97794.38
2018-04-26T21:45:50.315Z,97798.22
2018-04-26T21:48:21.335Z,97795.42
2018-04-26T21:50:58.384Z,97789.20
2018-04-26T21:53:35.588Z,97794.61
2018-04-26T21:56:12.906Z,97792.77
2018-04-26T21:58:50.057Z,97799.61
2018-04-26T22:01:27.207Z,97798.15
2018-04-26T22:07:02.384Z,97796.57
2018-04-26T22:09:33.399Z,97794.86
2018-04-26T22:12:04.462Z,97799.20
2018-04-26T22:14:35.503Z,97796.38
2018-04-26T22:17:06.513Z,97795.30
2018-04-26T22:19:37.529Z,97795.12
2018-04-26T22:22:08.551Z,97792.35
2018-04-26T22:24:39.568Z,97793.13
2018-04-26T22:27:10.637Z,97793.52
2018-04-26T22:29:41.677Z,97797.77
2018-04-26T22:32:12.673Z,97800.56
2018-04-26T22:34:43.723Z,97793.45
2018-04-26T22:37:14.714Z,97788.80
2018-04-26T22:39:45.824Z,97786.69
2018-04-26T22:42:16.923Z,97781.53
2018-04-26T22:44:48.005Z,97778.19
2018-04-26T22:47:19.162Z,97777.89
2018-04-26T22:49:50.143Z,97781.84
2018-04-26T22:52:21.161Z,97776.74
2018-04-26T22:54:52.206Z,97776.61
2018-04-26T22:57:23.249Z,97779.66
2018-04-26T22:59:54.297Z,97781.25
2018-04-26T23:02:25.331Z,97773.87
2018-04-26T23:04:56.424Z,97778.63
2018-04-26T23:07:27.497Z,97779.67
2018-04-26T23:09:58.555Z,97769.25
2018-04-26T23:12:29.663Z,97772.12
2018-04-26T23:15:00.727Z,97761.67
2018-04-26T23:17:31.748Z,97763.79
2018-04-26T23:20:02.875Z,97768.01
2018-04-26T23:22:33.929Z,97767.19
2018-04-26T23:25:04.964Z,97761.48
2018-04-26T23:27:35.971Z,97756.81
2018-04-26T23:30:07.034Z,97756.67
2018-04-26T23:32:38.090Z,97759.95
2018-04-26T23:35:09.126Z,97764.99
2018-04-26T23:37:47.148Z,97764.12
2018-04-26T23:40:18.159Z,97758.98
2018-04-26T23:42:49.219Z,97758.63
2018-04-26T23:45:20.250Z,97751.77
2018-04-26T23:47:51.262Z,97749.12
2018-04-26T23:50:22.323Z,97751.39
2018-04-26T23:52:53.390Z,97749.92
2018-04-26T23:55:24.415Z,97745.69
2018-04-26T23:57:55.445Z,97739.28
